sensor_id;sensor_type;location;lat;lon;timestamp;P1;durP1;ratioP1;P2;durP2;ratioP2
49015;SDS011;34830;44.064;12.566;2023-12-14T00:01:11;106.60;;;39.85;;
49015;SDS011;34830;44.064;12.566;2023-12-14T00:03:42;93.70;;;35.47;;
49015;SDS011;34830;44.064;12.566;2023-12-14T00:06:10;87.47;;;37.47;;
49015;SDS011;34830;44.064;12.566;2023-12-14T00:08:36;98.40;;;37.03;;
49015;SDS011;34830;44.064;12.566;2023-12-14T00:11:03;101.47;;;38.88;;
49015;SDS011;34830;44.064;12.566;2023-12-14T00:13:30;91.72;;;36.25;;
49015;SDS011;34830;44.064;12.566;2023-12-14T00:15:56;104.93;;;41.83;;
49015;SDS011;34830;44.064;12.566;2023-12-14T00:18:22;114.07;;;42.22;;
49015;SDS011;34830;44.064;12.566;2023-12-14T00:20:48;90.70;;;39.05;;
49015;SDS011;34830;44.064;12.566;2023-12-14T00:23:15;98.25;;;38.35;;
49015;SDS011;34830;44.064;12.566;2023-12-14T00:25:41;96.43;;;40.03;;
49015;SDS011;34830;44.064;12.566;2023-12-14T00:28:07;99.65;;;39.72;;
49015;SDS011;34830;44.064;12.566;2023-12-14T00:30:33;94.85;;;37.30;;
49015;SDS011;34830;44.064;12.566;2023-12-14T00:32:59;90.60;;;38.40;;
49015;SDS011;34830;44.064;12.566;2023-12-14T00:35:25;100.57;;;39.97;;
49015;SDS011;34830;44.064;12.566;2023-12-14T00:37:51;90.28;;;36.20;;
49015;SDS011;34830;44.064;12.566;2023-12-14T00:40:17;91.88;;;36.20;;
49015;SDS011;34830;44.064;12.566;2023-12-14T00:42:43;89.88;;;34.72;;
49015;SDS011;34830;44.064;12.566;2023-12-14T00:45:09;102.38;;;38.35;;
49015;SDS011;34830;44.064;12.566;2023-12-14T00:47:36;88.78;;;37.70;;
49015;SDS011;34830;44.064;12.566;2023-12-14T00:50:02;92.05;;;37.47;;
49015;SDS011;34830;44.064;12.566;2023-12-14T00:52:28;92.70;;;35.17;;
49015;SDS011;34830;44.064;12.566;2023-12-14T00:54:54;94.80;;;37.05;;
49015;SDS011;34830;44.064;12.566;2023-12-14T00:57:20;86.43;;;36.25;;
49015;SDS011;34830;44.064;12.566;2023-12-14T00:59:47;98.78;;;38.85;;
49015;SDS011;34830;44.064;12.566;2023-12-14T01:02:13;86.80;;;35.20;;
49015;SDS011;34830;44.064;12.566;2023-12-14T01:04:39;92.65;;;35.90;;
49015;SDS011;34830;44.064;12.566;2023-12-14T01:07:05;93.88;;;36.63;;
49015;SDS011;34830;44.064;12.566;2023-12-14T01:09:31;94.90;;;38.08;;
49015;SDS011;34830;44.064;12.566;2023-12-14T01:11:57;89.05;;;37.20;;
49015;SDS011;34830;44.064;12.566;2023-12-14T01:14:23;102.72;;;37.88;;
49015;SDS011;34830;44.064;12.566;2023-12-14T01:16:49;103.70;;;37.42;;
49015;SDS011;34830;44.064;12.566;2023-12-14T01:19:15;91.82;;;35.92;;
49015;SDS011;34830;44.064;12.566;2023-12-14T01:21:41;103.40;;;38.38;;
49015;SDS011;34830;44.064;12.566;2023-12-14T01:24:07;99.18;;;37.22;;
49015;SDS011;34830;44.064;12.566;2023-12-14T01:26:33;92.57;;;36.15;;
49015;SDS011;34830;44.064;12.566;2023-12-14T01:28:59;100.18;;;35.45;;
49015;SDS011;34830;44.064;12.566;2023-12-14T01:31:25;84.55;;;35.42;;
49015;SDS011;34830;44.064;12.566;2023-12-14T01:33:51;97.80;;;34.88;;
49015;SDS011;34830;44.064;12.566;2023-12-14T01:36:24;99.38;;;36.83;;
49015;SDS011;34830;44.064;12.566;2023-12-14T01:38:51;83.25;;;34.55;;
49015;SDS011;34830;44.064;12.566;2023-12-14T01:41:18;87.47;;;35.83;;
49015;SDS011;34830;44.064;12.566;2023-12-14T01:43:44;89.55;;;35.47;;
49015;SDS011;34830;44.064;12.566;2023-12-14T01:46:10;103.18;;;38.05;;
49015;SDS011;34830;44.064;12.566;2023-12-14T01:48:37;99.28;;;38.45;;
49015;SDS011;34830;44.064;12.566;2023-12-14T01:51:03;100.80;;;35.78;;
49015;SDS011;34830;44.064;12.566;2023-12-14T01:53:29;115.60;;;39.47;;
49015;SDS011;34830;44.064;12.566;2023-12-14T01:55:55;98.35;;;36.05;;
49015;SDS011;34830;44.064;12.566;2023-12-14T01:58:21;100.70;;;37.40;;
49015;SDS011;34830;44.064;12.566;2023-12-14T02:03:22;95.15;;;33.75;;
49015;SDS011;34830;44.064;12.566;2023-12-14T02:05:49;91.85;;;33.83;;
49015;SDS011;34830;44.064;12.566;2023-12-14T02:08:15;90.53;;;35.83;;
49015;SDS011;34830;44.064;12.566;2023-12-14T02:10:41;90.10;;;36.10;;
49015;SDS011;34830;44.064;12.566;2023-12-14T02:13:07;90.80;;;36.80;;
49015;SDS011;34830;44.064;12.566;2023-12-14T02:15:33;94.43;;;36.33;;
49015;SDS011;34830;44.064;12.566;2023-12-14T02:17:59;85.15;;;32.95;;
49015;SDS011;34830;44.064;12.566;2023-12-14T02:20:25;95.30;;;35.80;;
49015;SDS011;34830;44.064;12.566;2023-12-14T02:22:51;89.15;;;34.17;;
49015;SDS011;34830;44.064;12.566;2023-12-14T02:25:21;86.28;;;34.65;;
49015;SDS011;34830;44.064;12.566;2023-12-14T02:27:48;108.85;;;37.05;;
49015;SDS011;34830;44.064;12.566;2023-12-14T02:30:16;98.03;;;33.95;;
49015;SDS011;34830;44.064;12.566;2023-12-14T02:32:42;96.93;;;34.13;;
49015;SDS011;34830;44.064;12.566;2023-12-14T02:35:08;125.85;;;37.80;;
49015;SDS011;34830;44.064;12.566;2023-12-14T02:37:34;83.75;;;34.28;;
49015;SDS011;34830;44.064;12.566;2023-12-14T02:40:06;100.15;;;35.20;;
49015;SDS011;34830;44.064;12.566;2023-12-14T02:42:33;128.95;;;35.67;;
49015;SDS011;34830;44.064;12.566;2023-12-14T02:44:59;85.85;;;32.65;;
49015;SDS011;34830;44.064;12.566;2023-12-14T02:47:30;79.60;;;32.95;;
49015;SDS011;34830;44.064;12.566;2023-12-14T02:49:56;163.57;;;36.70;;
49015;SDS011;34830;44.064;12.566;2023-12-14T02:52:22;96.28;;;32.88;;
49015;SDS011;34830;44.064;12.566;2023-12-14T02:54:48;122.43;;;32.75;;
49015;SDS011;34830;44.064;12.566;2023-12-14T02:57:14;115.57;;;35.58;;
49015;SDS011;34830;44.064;12.566;2023-12-14T02:59:41;100.93;;;35.25;;
49015;SDS011;34830;44.064;12.566;2023-12-14T03:02:07;141.35;;;35.38;;
49015;SDS011;34830;44.064;12.566;2023-12-14T03:04:33;89.10;;;33.65;;
49015;SDS011;34830;44.064;12.566;2023-12-14T03:06:59;101.22;;;31.58;;
49015;SDS011;34830;44.064;12.566;2023-12-14T03:09:31;118.45;;;33.70;;
49015;SDS011;34830;44.064;12.566;2023-12-14T03:11:57;112.85;;;33.83;;
49015;SDS011;34830;44.064;12.566;2023-12-14T03:14:23;125.43;;;33.25;;
49015;SDS011;34830;44.064;12.566;2023-12-14T03:16:49;148.00;;;32.92;;
49015;SDS011;34830;44.064;12.566;2023-12-14T03:19:15;104.38;;;35.70;;
49015;SDS011;34830;44.064;12.566;2023-12-14T03:21:42;106.38;;;37.38;;
49015;SDS011;34830;44.064;12.566;2023-12-14T03:24:08;111.00;;;36.20;;
49015;SDS011;34830;44.064;12.566;2023-12-14T03:26:37;98.55;;;32.35;;
49015;SDS011;34830;44.064;12.566;2023-12-14T03:29:03;87.10;;;32.58;;
49015;SDS011;34830;44.064;12.566;2023-12-14T03:31:29;92.20;;;33.10;;
49015;SDS011;34830;44.064;12.566;2023-12-14T03:33:55;104.57;;;34.05;;
49015;SDS011;34830;44.064;12.566;2023-12-14T03:36:21;147.05;;;35.97;;
49015;SDS011;34830;44.064;12.566;2023-12-14T03:38:51;98.35;;;32.08;;
49015;SDS011;34830;44.064;12.566;2023-12-14T03:41:18;101.25;;;32.20;;
49015;SDS011;34830;44.064;12.566;2023-12-14T03:43:44;90.78;;;33.50;;
49015;SDS011;34830;44.064;12.566;2023-12-14T03:46:10;109.00;;;32.70;;
49015;SDS011;34830;44.064;12.566;2023-12-14T03:48:36;114.45;;;32.97;;
49015;SDS011;34830;44.064;12.566;2023-12-14T03:51:03;118.75;;;34.13;;
49015;SDS011;34830;44.064;12.566;2023-12-14T03:53:31;169.73;;;37.58;;
49015;SDS011;34830;44.064;12.566;2023-12-14T03:55:58;101.10;;;35.95;;
49015;SDS011;34830;44.064;12.566;2023-12-14T03:58:24;96.50;;;32.40;;
49015;SDS011;34830;44.064;12.566;2023-12-14T04:00:50;101.07;;;32.50;;
49015;SDS011;34830;44.064;12.566;2023-12-14T04:03:16;101.57;;;35.35;;
49015;SDS011;34830;44.064;12.566;2023-12-14T04:05:42;120.57;;;37.63;;
49015;SDS011;34830;44.064;12.566;2023-12-14T04:08:10;111.18;;;33.35;;
49015;SDS011;34830;44.064;12.566;2023-12-14T04:10:36;129.32;;;36.03;;
49015;SDS011;34830;44.064;12.566;2023-12-14T04:13:02;137.02;;;36.63;;
49015;SDS011;34830;44.064;12.566;2023-12-14T04:15:28;114.00;;;35.08;;
49015;SDS011;34830;44.064;12.566;2023-12-14T04:17:54;93.53;;;34.60;;
49015;SDS011;34830;44.064;12.566;2023-12-14T04:20:20;115.25;;;36.35;;
49015;SDS011;34830;44.064;12.566;2023-12-14T04:22:46;134.43;;;36.38;;
49015;SDS011;34830;44.064;12.566;2023-12-14T04:25:14;123.72;;;35.60;;
49015;SDS011;34830;44.064;12.566;2023-12-14T04:27:40;101.80;;;35.65;;
49015;SDS011;34830;44.064;12.566;2023-12-14T04:30:06;107.80;;;38.22;;
49015;SDS011;34830;44.064;12.566;2023-12-14T04:32:36;105.63;;;38.28;;
49015;SDS011;34830;44.064;12.566;2023-12-14T04:35:05;117.45;;;40.05;;
49015;SDS011;34830;44.064;12.566;2023-12-14T04:37:32;103.28;;;36.65;;
49015;SDS011;34830;44.064;12.566;2023-12-14T04:39:58;97.60;;;37.45;;
49015;SDS011;34830;44.064;12.566;2023-12-14T04:42:24;95.47;;;33.78;;
49015;SDS011;34830;44.064;12.566;2023-12-14T04:44:50;100.05;;;34.72;;
49015;SDS011;34830;44.064;12.566;2023-12-14T04:47:16;93.70;;;34.35;;
49015;SDS011;34830;44.064;12.566;2023-12-14T04:49:42;98.38;;;33.40;;
49015;SDS011;34830;44.064;12.566;2023-12-14T04:52:08;125.05;;;36.55;;
49015;SDS011;34830;44.064;12.566;2023-12-14T04:54:35;100.53;;;34.97;;
49015;SDS011;34830;44.064;12.566;2023-12-14T04:57:03;95.28;;;32.25;;
49015;SDS011;34830;44.064;12.566;2023-12-14T04:59:30;96.80;;;34.78;;
49015;SDS011;34830;44.064;12.566;2023-12-14T05:01:56;91.75;;;35.50;;
49015;SDS011;34830;44.064;12.566;2023-12-14T05:04:22;131.98;;;36.97;;
49015;SDS011;34830;44.064;12.566;2023-12-14T05:06:48;111.32;;;33.97;;
49015;SDS011;34830;44.064;12.566;2023-12-14T05:09:14;87.78;;;31.10;;
49015;SDS011;34830;44.064;12.566;2023-12-14T05:11:40;79.35;;;29.95;;
49015;SDS011;34830;44.064;12.566;2023-12-14T05:14:06;89.15;;;29.88;;
49015;SDS011;34830;44.064;12.566;2023-12-14T05:16:32;86.63;;;29.83;;
49015;SDS011;34830;44.064;12.566;2023-12-14T05:18:58;91.93;;;29.50;;
49015;SDS011;34830;44.064;12.566;2023-12-14T05:21:24;62.83;;;24.55;;
49015;SDS011;34830;44.064;12.566;2023-12-14T05:23:51;64.95;;;25.42;;
49015;SDS011;34830;44.064;12.566;2023-12-14T05:26:17;73.03;;;26.83;;
49015;SDS011;34830;44.064;12.566;2023-12-14T05:28:43;58.33;;;23.73;;
49015;SDS011;34830;44.064;12.566;2023-12-14T05:31:09;63.08;;;24.35;;
49015;SDS011;34830;44.064;12.566;2023-12-14T05:33:38;59.92;;;25.27;;
49015;SDS011;34830;44.064;12.566;2023-12-14T05:36:05;65.05;;;23.40;;
49015;SDS011;34830;44.064;12.566;2023-12-14T05:38:34;59.53;;;22.90;;
49015;SDS011;34830;44.064;12.566;2023-12-14T05:41:00;46.67;;;20.67;;
49015;SDS011;34830;44.064;12.566;2023-12-14T05:43:26;44.45;;;19.20;;
49015;SDS011;34830;44.064;12.566;2023-12-14T05:45:52;51.25;;;22.23;;
49015;SDS011;34830;44.064;12.566;2023-12-14T05:48:18;53.78;;;20.92;;
49015;SDS011;34830;44.064;12.566;2023-12-14T05:50:45;66.85;;;20.15;;
49015;SDS011;34830;44.064;12.566;2023-12-14T05:53:11;42.88;;;17.30;;
49015;SDS011;34830;44.064;12.566;2023-12-14T05:55:38;45.90;;;18.27;;
49015;SDS011;34830;44.064;12.566;2023-12-14T05:58:05;50.03;;;19.58;;
49015;SDS011;34830;44.064;12.566;2023-12-14T06:00:31;42.95;;;17.85;;
49015;SDS011;34830;44.064;12.566;2023-12-14T06:02:59;39.50;;;16.92;;
49015;SDS011;34830;44.064;12.566;2023-12-14T06:05:25;35.95;;;17.50;;
49015;SDS011;34830;44.064;12.566;2023-12-14T06:07:51;41.92;;;19.00;;
49015;SDS011;34830;44.064;12.566;2023-12-14T06:10:18;38.17;;;17.50;;
49015;SDS011;34830;44.064;12.566;2023-12-14T06:12:44;35.17;;;16.92;;
49015;SDS011;34830;44.064;12.566;2023-12-14T06:15:10;42.38;;;18.27;;
49015;SDS011;34830;44.064;12.566;2023-12-14T06:17:36;46.60;;;21.50;;
49015;SDS011;34830;44.064;12.566;2023-12-14T06:20:05;42.17;;;18.88;;
49015;SDS011;34830;44.064;12.566;2023-12-14T06:22:37;44.33;;;19.27;;
49015;SDS011;34830;44.064;12.566;2023-12-14T06:25:03;49.28;;;20.83;;
49015;SDS011;34830;44.064;12.566;2023-12-14T06:27:30;42.67;;;18.77;;
49015;SDS011;34830;44.064;12.566;2023-12-14T06:29:56;60.20;;;20.25;;
49015;SDS011;34830;44.064;12.566;2023-12-14T06:32:22;51.28;;;19.92;;
49015;SDS011;34830;44.064;12.566;2023-12-14T06:34:48;50.40;;;19.58;;
49015;SDS011;34830;44.064;12.566;2023-12-14T06:37:14;53.67;;;20.17;;
49015;SDS011;34830;44.064;12.566;2023-12-14T06:39:41;53.80;;;19.65;;
49015;SDS011;34830;44.064;12.566;2023-12-14T06:42:07;54.80;;;21.70;;
49015;SDS011;34830;44.064;12.566;2023-12-14T06:44:34;51.92;;;20.13;;
49015;SDS011;34830;44.064;12.566;2023-12-14T06:47:00;51.28;;;20.75;;
49015;SDS011;34830;44.064;12.566;2023-12-14T06:49:26;49.65;;;20.90;;
49015;SDS011;34830;44.064;12.566;2023-12-14T06:51:52;46.30;;;20.58;;
49015;SDS011;34830;44.064;12.566;2023-12-14T06:54:18;60.33;;;21.08;;
49015;SDS011;34830;44.064;12.566;2023-12-14T06:56:45;58.60;;;22.52;;
49015;SDS011;34830;44.064;12.566;2023-12-14T06:59:11;51.80;;;20.23;;
49015;SDS011;34830;44.064;12.566;2023-12-14T07:01:37;51.70;;;21.35;;
49015;SDS011;34830;44.064;12.566;2023-12-14T07:04:03;50.05;;;20.65;;
49015;SDS011;34830;44.064;12.566;2023-12-14T07:06:29;53.00;;;22.15;;
49015;SDS011;34830;44.064;12.566;2023-12-14T07:08:55;52.97;;;21.05;;
49015;SDS011;34830;44.064;12.566;2023-12-14T07:11:21;58.35;;;23.63;;
49015;SDS011;34830;44.064;12.566;2023-12-14T07:13:47;61.50;;;22.33;;
49015;SDS011;34830;44.064;12.566;2023-12-14T07:16:14;52.10;;;22.58;;
49015;SDS011;34830;44.064;12.566;2023-12-14T07:18:41;55.45;;;21.60;;
49015;SDS011;34830;44.064;12.566;2023-12-14T07:21:07;62.60;;;23.77;;
49015;SDS011;34830;44.064;12.566;2023-12-14T07:23:34;56.35;;;21.13;;
49015;SDS011;34830;44.064;12.566;2023-12-14T07:26:01;47.08;;;21.17;;
49015;SDS011;34830;44.064;12.566;2023-12-14T07:28:27;45.58;;;20.08;;
49015;SDS011;34830;44.064;12.566;2023-12-14T07:30:53;52.75;;;21.77;;
49015;SDS011;34830;44.064;12.566;2023-12-14T07:33:19;54.65;;;22.45;;
49015;SDS011;34830;44.064;12.566;2023-12-14T07:35:45;46.28;;;21.17;;
49015;SDS011;34830;44.064;12.566;2023-12-14T07:38:12;53.13;;;21.85;;
49015;SDS011;34830;44.064;12.566;2023-12-14T07:40:39;61.95;;;23.17;;
49015;SDS011;34830;44.064;12.566;2023-12-14T07:43:06;50.33;;;21.90;;
49015;SDS011;34830;44.064;12.566;2023-12-14T07:45:32;52.33;;;24.10;;
49015;SDS011;34830;44.064;12.566;2023-12-14T07:47:58;49.50;;;21.88;;
49015;SDS011;34830;44.064;12.566;2023-12-14T07:50:25;52.35;;;23.65;;
49015;SDS011;34830;44.064;12.566;2023-12-14T07:52:52;53.70;;;22.73;;
49015;SDS011;34830;44.064;12.566;2023-12-14T07:55:19;56.70;;;23.45;;
49015;SDS011;34830;44.064;12.566;2023-12-14T07:57:45;61.17;;;22.98;;
49015;SDS011;34830;44.064;12.566;2023-12-14T08:00:11;59.08;;;22.85;;
49015;SDS011;34830;44.064;12.566;2023-12-14T08:02:38;61.67;;;23.83;;
49015;SDS011;34830;44.064;12.566;2023-12-14T08:05:04;58.42;;;23.70;;
49015;SDS011;34830;44.064;12.566;2023-12-14T08:07:31;52.28;;;23.42;;
49015;SDS011;34830;44.064;12.566;2023-12-14T08:09:58;67.78;;;26.90;;
49015;SDS011;34830;44.064;12.566;2023-12-14T08:12:24;63.17;;;24.98;;
49015;SDS011;34830;44.064;12.566;2023-12-14T08:14:51;68.00;;;26.27;;
49015;SDS011;34830;44.064;12.566;2023-12-14T08:17:17;65.63;;;25.52;;
49015;SDS011;34830;44.064;12.566;2023-12-14T08:19:43;67.57;;;25.55;;
49015;SDS011;34830;44.064;12.566;2023-12-14T08:22:10;58.83;;;25.33;;
49015;SDS011;34830;44.064;12.566;2023-12-14T08:24:41;67.63;;;25.73;;
49015;SDS011;34830;44.064;12.566;2023-12-14T08:27:07;55.72;;;25.40;;
49015;SDS011;34830;44.064;12.566;2023-12-14T08:29:33;62.70;;;25.25;;
49015;SDS011;34830;44.064;12.566;2023-12-14T08:32:00;59.60;;;24.98;;
49015;SDS011;34830;44.064;12.566;2023-12-14T08:34:26;61.75;;;26.02;;
49015;SDS011;34830;44.064;12.566;2023-12-14T08:36:53;56.70;;;24.17;;
49015;SDS011;34830;44.064;12.566;2023-12-14T08:39:19;71.38;;;28.30;;
49015;SDS011;34830;44.064;12.566;2023-12-14T08:41:46;66.60;;;25.45;;
49015;SDS011;34830;44.064;12.566;2023-12-14T08:44:13;58.00;;;24.70;;
49015;SDS011;34830;44.064;12.566;2023-12-14T08:46:40;61.35;;;24.35;;
49015;SDS011;34830;44.064;12.566;2023-12-14T08:49:07;68.32;;;24.27;;
49015;SDS011;34830;44.064;12.566;2023-12-14T08:51:33;55.63;;;23.88;;
49015;SDS011;34830;44.064;12.566;2023-12-14T08:53:59;59.22;;;23.20;;
49015;SDS011;34830;44.064;12.566;2023-12-14T08:56:25;53.67;;;22.85;;
49015;SDS011;34830;44.064;12.566;2023-12-14T08:58:51;50.35;;;23.58;;
49015;SDS011;34830;44.064;12.566;2023-12-14T09:01:22;52.70;;;22.00;;
49015;SDS011;34830;44.064;12.566;2023-12-14T09:03:49;56.65;;;24.80;;
49015;SDS011;34830;44.064;12.566;2023-12-14T09:06:18;50.20;;;20.75;;
49015;SDS011;34830;44.064;12.566;2023-12-14T09:08:44;51.17;;;21.10;;
49015;SDS011;34830;44.064;12.566;2023-12-14T09:11:11;58.22;;;22.35;;
49015;SDS011;34830;44.064;12.566;2023-12-14T09:13:37;63.40;;;23.27;;
49015;SDS011;34830;44.064;12.566;2023-12-14T09:16:04;64.95;;;21.30;;
49015;SDS011;34830;44.064;12.566;2023-12-14T09:18:30;59.22;;;22.55;;
49015;SDS011;34830;44.064;12.566;2023-12-14T09:20:56;56.50;;;22.92;;
49015;SDS011;34830;44.064;12.566;2023-12-14T09:23:22;60.75;;;20.13;;
49015;SDS011;34830;44.064;12.566;2023-12-14T09:25:48;52.63;;;20.52;;
49015;SDS011;34830;44.064;12.566;2023-12-14T09:28:15;56.45;;;22.38;;
49015;SDS011;34830;44.064;12.566;2023-12-14T09:30:41;57.28;;;21.25;;
49015;SDS011;34830;44.064;12.566;2023-12-14T09:33:07;53.00;;;21.23;;
49015;SDS011;34830;44.064;12.566;2023-12-14T09:35:34;45.40;;;20.45;;
49015;SDS011;34830;44.064;12.566;2023-12-14T09:38:02;50.65;;;19.58;;
49015;SDS011;34830;44.064;12.566;2023-12-14T09:40:29;51.47;;;20.63;;
49015;SDS011;34830;44.064;12.566;2023-12-14T09:42:56;51.30;;;19.20;;
49015;SDS011;34830;44.064;12.566;2023-12-14T09:45:27;55.70;;;23.15;;
49015;SDS011;34830;44.064;12.566;2023-12-14T09:47:55;48.35;;;18.55;;
49015;SDS011;34830;44.064;12.566;2023-12-14T09:50:23;51.30;;;18.85;;
49015;SDS011;34830;44.064;12.566;2023-12-14T09:52:49;42.83;;;18.67;;
49015;SDS011;34830;44.064;12.566;2023-12-14T09:55:15;52.33;;;18.48;;
49015;SDS011;34830;44.064;12.566;2023-12-14T09:57:42;46.75;;;18.35;;
49015;SDS011;34830;44.064;12.566;2023-12-14T10:00:08;43.85;;;16.90;;
49015;SDS011;34830;44.064;12.566;2023-12-14T10:05:08;33.08;;;15.40;;
49015;SDS011;34830;44.064;12.566;2023-12-14T10:07:42;37.05;;;15.98;;
49015;SDS011;34830;44.064;12.566;2023-12-14T10:10:12;37.53;;;15.95;;
49015;SDS011;34830;44.064;12.566;2023-12-14T10:12:52;34.15;;;17.02;;
49015;SDS011;34830;44.064;12.566;2023-12-14T10:15:19;34.42;;;17.05;;
49015;SDS011;34830;44.064;12.566;2023-12-14T10:17:45;34.85;;;15.30;;
49015;SDS011;34830;44.064;12.566;2023-12-14T10:20:19;38.83;;;16.88;;
49015;SDS011;34830;44.064;12.566;2023-12-14T10:22:48;39.53;;;19.13;;
49015;SDS011;34830;44.064;12.566;2023-12-14T10:25:15;35.85;;;15.93;;
49015;SDS011;34830;44.064;12.566;2023-12-14T10:27:41;39.13;;;16.80;;
49015;SDS011;34830;44.064;12.566;2023-12-14T10:30:07;35.33;;;16.70;;
49015;SDS011;34830;44.064;12.566;2023-12-14T10:32:34;36.17;;;17.15;;
49015;SDS011;34830;44.064;12.566;2023-12-14T10:35:00;43.08;;;16.63;;
49015;SDS011;34830;44.064;12.566;2023-12-14T10:37:26;41.53;;;18.55;;
49015;SDS011;34830;44.064;12.566;2023-12-14T10:39:53;40.33;;;17.73;;
49015;SDS011;34830;44.064;12.566;2023-12-14T10:42:20;43.80;;;19.25;;
49015;SDS011;34830;44.064;12.566;2023-12-14T10:44:48;50.30;;;20.05;;
49015;SDS011;34830;44.064;12.566;2023-12-14T10:47:15;53.55;;;20.27;;
49015;SDS011;34830;44.064;12.566;2023-12-14T10:49:42;45.45;;;20.48;;
49015;SDS011;34830;44.064;12.566;2023-12-14T10:52:09;41.55;;;19.02;;
49015;SDS011;34830;44.064;12.566;2023-12-14T10:54:35;46.78;;;20.33;;
49015;SDS011;34830;44.064;12.566;2023-12-14T10:57:03;50.05;;;21.98;;
49015;SDS011;34830;44.064;12.566;2023-12-14T10:59:31;57.63;;;21.30;;
49015;SDS011;34830;44.064;12.566;2023-12-14T11:01:57;40.42;;;19.52;;
49015;SDS011;34830;44.064;12.566;2023-12-14T11:04:25;44.22;;;21.27;;
49015;SDS011;34830;44.064;12.566;2023-12-14T11:06:53;60.30;;;21.80;;
49015;SDS011;34830;44.064;12.566;2023-12-14T11:09:21;44.47;;;19.80;;
49015;SDS011;34830;44.064;12.566;2023-12-14T11:14:24;47.75;;;21.58;;
49015;SDS011;34830;44.064;12.566;2023-12-14T11:16:53;52.25;;;23.00;;
49015;SDS011;34830;44.064;12.566;2023-12-14T11:21:59;49.08;;;21.90;;
49015;SDS011;34830;44.064;12.566;2023-12-14T11:24:34;46.75;;;21.05;;
49015;SDS011;34830;44.064;12.566;2023-12-14T11:27:04;55.03;;;22.55;;
49015;SDS011;34830;44.064;12.566;2023-12-14T11:29:32;52.45;;;20.88;;
49015;SDS011;34830;44.064;12.566;2023-12-14T11:31:58;63.97;;;23.35;;
49015;SDS011;34830;44.064;12.566;2023-12-14T11:34:24;53.15;;;21.80;;
49015;SDS011;34830;44.064;12.566;2023-12-14T11:36:50;55.80;;;22.48;;
49015;SDS011;34830;44.064;12.566;2023-12-14T11:39:16;55.65;;;23.73;;
49015;SDS011;34830;44.064;12.566;2023-12-14T11:41:58;59.13;;;24.10;;
49015;SDS011;34830;44.064;12.566;2023-12-14T11:44:25;59.58;;;25.10;;
49015;SDS011;34830;44.064;12.566;2023-12-14T11:46:51;53.40;;;22.83;;
49015;SDS011;34830;44.064;12.566;2023-12-14T11:49:17;65.80;;;26.75;;
49015;SDS011;34830;44.064;12.566;2023-12-14T11:51:45;56.70;;;21.92;;
49015;SDS011;34830;44.064;12.566;2023-12-14T11:54:12;56.55;;;25.50;;
49015;SDS011;34830;44.064;12.566;2023-12-14T11:56:45;53.75;;;24.65;;
49015;SDS011;34830;44.064;12.566;2023-12-14T11:59:11;56.90;;;23.80;;
49015;SDS011;34830;44.064;12.566;2023-12-14T12:01:38;56.97;;;24.33;;
49015;SDS011;34830;44.064;12.566;2023-12-14T12:04:10;57.97;;;25.35;;
49015;SDS011;34830;44.064;12.566;2023-12-14T12:06:37;55.65;;;24.60;;
49015;SDS011;34830;44.064;12.566;2023-12-14T12:09:03;51.78;;;24.63;;
49015;SDS011;34830;44.064;12.566;2023-12-14T12:11:33;54.13;;;24.10;;
49015;SDS011;34830;44.064;12.566;2023-12-14T12:13:59;53.53;;;24.70;;
49015;SDS011;34830;44.064;12.566;2023-12-14T12:16:26;56.90;;;23.40;;
49015;SDS011;34830;44.064;12.566;2023-12-14T12:18:53;52.47;;;23.55;;
49015;SDS011;34830;44.064;12.566;2023-12-14T12:21:19;54.72;;;22.83;;
49015;SDS011;34830;44.064;12.566;2023-12-14T12:23:45;48.85;;;22.80;;
49015;SDS011;34830;44.064;12.566;2023-12-14T12:26:11;54.33;;;24.60;;
49015;SDS011;34830;44.064;12.566;2023-12-14T12:28:37;45.60;;;23.45;;
49015;SDS011;34830;44.064;12.566;2023-12-14T12:31:03;50.05;;;24.23;;
49015;SDS011;34830;44.064;12.566;2023-12-14T12:33:29;46.55;;;23.70;;
49015;SDS011;34830;44.064;12.566;2023-12-14T12:35:57;53.90;;;25.02;;
49015;SDS011;34830;44.064;12.566;2023-12-14T12:38:23;54.22;;;22.63;;
49015;SDS011;34830;44.064;12.566;2023-12-14T12:40:49;47.63;;;22.55;;
49015;SDS011;34830;44.064;12.566;2023-12-14T12:43:15;44.40;;;22.42;;
49015;SDS011;34830;44.064;12.566;2023-12-14T12:45:41;44.83;;;23.38;;
49015;SDS011;34830;44.064;12.566;2023-12-14T12:48:07;43.65;;;21.42;;
49015;SDS011;34830;44.064;12.566;2023-12-14T12:50:33;42.75;;;22.63;;
49015;SDS011;34830;44.064;12.566;2023-12-14T12:52:59;46.22;;;23.65;;
49015;SDS011;34830;44.064;12.566;2023-12-14T12:55:25;50.97;;;23.38;;
49015;SDS011;34830;44.064;12.566;2023-12-14T12:57:51;42.85;;;22.27;;
49015;SDS011;34830;44.064;12.566;2023-12-14T13:00:17;45.67;;;23.63;;
49015;SDS011;34830;44.064;12.566;2023-12-14T13:02:44;53.55;;;26.63;;
49015;SDS011;34830;44.064;12.566;2023-12-14T13:05:10;50.53;;;24.00;;
49015;SDS011;34830;44.064;12.566;2023-12-14T13:07:37;47.38;;;23.40;;
49015;SDS011;34830;44.064;12.566;2023-12-14T13:10:03;52.10;;;24.50;;
49015;SDS011;34830;44.064;12.566;2023-12-14T13:12:32;51.88;;;26.38;;
49015;SDS011;34830;44.064;12.566;2023-12-14T13:14:59;44.80;;;23.77;;
49015;SDS011;34830;44.064;12.566;2023-12-14T13:17:25;51.70;;;23.27;;
49015;SDS011;34830;44.064;12.566;2023-12-14T13:19:51;47.85;;;24.55;;
49015;SDS011;34830;44.064;12.566;2023-12-14T13:22:18;53.60;;;23.48;;
49015;SDS011;34830;44.064;12.566;2023-12-14T13:24:45;42.42;;;23.70;;
49015;SDS011;34830;44.064;12.566;2023-12-14T13:27:11;48.55;;;25.65;;
49015;SDS011;34830;44.064;12.566;2023-12-14T13:29:39;48.03;;;24.92;;
49015;SDS011;34830;44.064;12.566;2023-12-14T13:32:05;47.58;;;22.45;;
49015;SDS011;34830;44.064;12.566;2023-12-14T13:34:31;42.83;;;22.33;;
49015;SDS011;34830;44.064;12.566;2023-12-14T13:36:58;51.05;;;23.92;;
49015;SDS011;34830;44.064;12.566;2023-12-14T13:39:26;52.08;;;25.15;;
49015;SDS011;34830;44.064;12.566;2023-12-14T13:41:53;49.45;;;24.10;;
49015;SDS011;34830;44.064;12.566;2023-12-14T13:44:19;52.67;;;24.77;;
49015;SDS011;34830;44.064;12.566;2023-12-14T13:46:45;44.75;;;24.83;;
49015;SDS011;34830;44.064;12.566;2023-12-14T13:49:11;46.78;;;24.75;;
49015;SDS011;34830;44.064;12.566;2023-12-14T13:51:37;49.55;;;25.27;;
49015;SDS011;34830;44.064;12.566;2023-12-14T13:54:03;51.53;;;25.08;;
49015;SDS011;34830;44.064;12.566;2023-12-14T13:56:30;54.45;;;25.83;;
49015;SDS011;34830;44.064;12.566;2023-12-14T13:58:56;53.28;;;25.92;;
49015;SDS011;34830;44.064;12.566;2023-12-14T14:01:22;52.92;;;26.77;;
49015;SDS011;34830;44.064;12.566;2023-12-14T14:03:48;49.15;;;26.95;;
49015;SDS011;34830;44.064;12.566;2023-12-14T14:06:14;48.75;;;24.92;;
49015;SDS011;34830;44.064;12.566;2023-12-14T14:08:40;50.47;;;24.75;;
49015;SDS011;34830;44.064;12.566;2023-12-14T14:11:06;50.70;;;24.23;;
49015;SDS011;34830;44.064;12.566;2023-12-14T14:13:32;41.03;;;24.48;;